createdAt,value
2023-04-29T00:01:27.163Z,86.00
2023-04-29T00:03:54.270Z,85.90
2023-04-29T00:06:21.614Z,85.90
2023-04-29T00:08:48.648Z,85.90
2023-04-29T00:11:15.600Z,85.90
2023-04-29T00:13:42.312Z,85.90
2023-04-29T00:16:11.953Z,85.80
2023-04-29T00:18:45.026Z,85.90
2023-04-29T00:21:12.166Z,85.90
2023-04-29T00:23:38.934Z,85.90
2023-04-29T00:26:05.903Z,86.70
2023-04-29T00:28:33.309Z,85.80
2023-04-29T00:31:00.749Z,85.90
2023-04-29T00:33:27.576Z,85.90
2023-04-29T00:35:57.170Z,86.00
2023-04-29T00:38:24.066Z,85.90
2023-04-29T00:40:55.269Z,86.00
2023-04-29T00:43:22.458Z,86.00
2023-04-29T00:45:49.293Z,86.00
2023-04-29T00:48:20.133Z,86.00
2023-04-29T00:50:47.708Z,86.10
2023-04-29T00:53:14.834Z,86.20
2023-04-29T00:55:44.055Z,86.20
2023-04-29T00:58:11.855Z,86.20
2023-04-29T01:00:41.523Z,86.20
2023-04-29T01:03:10.626Z,86.20
2023-04-29T01:05:40.699Z,86.20
2023-04-29T01:08:51.190Z,86.20
2023-04-29T01:11:23.853Z,86.10
2023-04-29T01:13:51.886Z,86.10
2023-04-29T01:16:38.362Z,86.20
2023-04-29T01:19:44.092Z,86.10
2023-04-29T01:22:11.608Z,86.00
2023-04-29T01:24:39.234Z,86.20
2023-04-29T01:27:32.594Z,86.20
2023-04-29T01:30:36.107Z,86.30
2023-04-29T01:33:28.483Z,86.10
2023-04-29T01:36:25.435Z,86.10
2023-04-29T01:39:14.564Z,86.20
2023-04-29T01:41:52.103Z,86.20
2023-04-29T01:44:26.815Z,86.20
2023-04-29T01:46:54.739Z,86.20
2023-04-29T01:49:31.086Z,86.30
2023-04-29T01:52:00.862Z,86.30
2023-04-29T01:54:30.706Z,86.30
2023-04-29T01:56:58.613Z,86.20
2023-04-29T01:59:26.767Z,86.30
2023-04-29T02:01:58.790Z,86.30
2023-04-29T02:04:26.315Z,86.40
2023-04-29T02:06:53.314Z,86.40
2023-04-29T02:09:20.483Z,86.40
2023-04-29T02:11:47.330Z,86.50
2023-04-29T02:14:14.518Z,86.50
2023-04-29T02:16:44.116Z,86.50
2023-04-29T02:19:11.894Z,86.60
2023-04-29T02:21:40.174Z,86.60
2023-04-29T02:24:07.292Z,86.60
2023-04-29T02:26:38.271Z,86.50
2023-04-29T02:29:05.143Z,86.60
2023-04-29T02:31:32.687Z,86.60
2023-04-29T02:34:00.664Z,86.60
2023-04-29T02:36:28.552Z,86.60
2023-04-29T02:38:56.430Z,86.60
2023-04-29T02:41:23.645Z,86.50
2023-04-29T02:43:50.543Z,86.60
2023-04-29T02:46:20.232Z,86.70
2023-04-29T02:48:47.227Z,86.60
2023-04-29T02:51:14.514Z,86.50
2023-04-29T02:53:41.354Z,86.60
2023-04-29T02:56:08.131Z,86.50
2023-04-29T02:58:34.915Z,86.50
2023-04-29T03:01:01.672Z,87.10
2023-04-29T03:03:28.599Z,86.50
2023-04-29T03:05:55.472Z,86.70
2023-04-29T03:08:22.400Z,86.70
2023-04-29T03:10:49.210Z,86.70
2023-04-29T03:13:16.042Z,86.80
2023-04-29T03:15:44.312Z,86.80
2023-04-29T03:18:14.398Z,86.80
2023-04-29T03:20:41.170Z,86.80
2023-04-29T03:23:07.962Z,86.80
2023-04-29T03:25:34.811Z,86.70
2023-04-29T03:28:01.564Z,86.80
2023-04-29T03:30:28.400Z,86.70
2023-04-29T03:32:55.248Z,86.80
2023-04-29T03:35:21.956Z,86.70
2023-04-29T03:37:51.741Z,86.80
2023-04-29T03:40:18.951Z,86.80
2023-04-29T03:42:45.914Z,86.80
2023-04-29T03:45:14.470Z,86.80
2023-04-29T03:47:41.596Z,86.80
2023-04-29T03:50:09.120Z,86.80
2023-04-29T03:52:38.796Z,86.80
2023-04-29T03:55:05.976Z,86.80
2023-04-29T03:57:32.803Z,86.80
2023-04-29T03:59:59.562Z,86.90
2023-04-29T04:02:26.672Z,86.90
2023-04-29T04:04:55.350Z,86.90
2023-04-29T04:07:22.207Z,86.90
2023-04-29T04:09:49.321Z,86.90
2023-04-29T04:12:16.057Z,86.90
2023-04-29T04:14:42.861Z,86.90
2023-04-29T04:17:09.641Z,86.90
2023-04-29T04:19:36.890Z,86.90
2023-04-29T04:22:04.767Z,87.00
2023-04-29T04:24:31.632Z,87.00
2023-04-29T04:26:58.454Z,86.90
2023-04-29T04:29:25.337Z,86.90
2023-04-29T04:31:52.173Z,86.80
2023-04-29T04:34:18.997Z,86.90
2023-04-29T04:36:45.968Z,86.90
2023-04-29T04:39:12.664Z,86.80
2023-04-29T04:41:39.467Z,86.80
2023-04-29T04:44:06.500Z,86.80
2023-04-29T04:46:33.441Z,86.80
2023-04-29T04:49:00.267Z,86.80
2023-04-29T04:51:28.950Z,86.80
2023-04-29T04:53:55.865Z,86.80
2023-04-29T04:56:22.805Z,86.80
2023-04-29T04:58:49.668Z,86.80
2023-04-29T05:01:16.730Z,86.90
2023-04-29T05:03:44.146Z,86.90
2023-04-29T05:06:11.062Z,86.90
2023-04-29T05:08:38.213Z,86.90
2023-04-29T05:11:07.503Z,86.90
2023-04-29T05:13:34.421Z,86.90
2023-04-29T05:16:06.250Z,86.90
2023-04-29T05:18:33.275Z,86.90
2023-04-29T05:21:00.135Z,87.00
2023-04-29T05:23:26.918Z,86.90
2023-04-29T05:25:53.824Z,86.90
2023-04-29T05:28:20.706Z,86.90
2023-04-29T05:30:50.600Z,86.90
2023-04-29T05:33:17.538Z,86.90
2023-04-29T05:35:44.595Z,86.90
2023-04-29T05:38:11.413Z,86.90
2023-04-29T05:40:41.058Z,86.90
2023-04-29T05:43:07.909Z,86.90
2023-04-29T05:45:34.687Z,86.90
2023-04-29T05:48:01.573Z,86.90
2023-04-29T05:50:28.314Z,86.90
2023-04-29T05:52:56.538Z,87.00
2023-04-29T05:55:23.636Z,86.90
2023-04-29T05:57:50.551Z,86.90
2023-04-29T06:00:17.302Z,86.80
2023-04-29T06:02:57.586Z,86.80
2023-04-29T06:05:27.526Z,86.80
2023-04-29T06:07:54.767Z,87.70
2023-04-29T06:10:21.522Z,86.70
2023-04-29T06:12:51.557Z,86.80
2023-04-29T06:15:18.362Z,86.60
2023-04-29T06:17:45.157Z,86.50
2023-04-29T06:20:12.551Z,86.40
2023-04-29T06:22:39.347Z,86.40
2023-04-29T06:25:06.748Z,86.20
2023-04-29T06:27:34.607Z,86.10
2023-04-29T06:30:01.744Z,86.10
2023-04-29T06:32:28.638Z,85.90
2023-04-29T06:34:55.366Z,86.00
2023-04-29T06:37:25.137Z,85.90
2023-04-29T06:39:52.055Z,86.00
2023-04-29T06:42:18.948Z,85.80
2023-04-29T06:44:45.786Z,85.80
2023-04-29T06:47:12.732Z,85.80
2023-04-29T06:49:39.765Z,85.80
2023-04-29T06:52:06.926Z,85.80
2023-04-29T06:54:33.679Z,85.80
2023-04-29T06:57:00.748Z,85.60
2023-04-29T06:59:27.519Z,85.50
2023-04-29T07:01:54.470Z,85.30
2023-04-29T07:04:21.532Z,85.00
2023-04-29T07:06:48.562Z,85.00
2023-04-29T07:09:15.502Z,84.80
2023-04-29T07:11:42.741Z,84.80
2023-04-29T07:14:09.588Z,84.80
2023-04-29T07:16:36.367Z,84.60
2023-04-29T07:19:03.222Z,84.50
2023-04-29T07:21:30.778Z,84.20
2023-04-29T07:23:59.424Z,84.00
2023-04-29T07:26:26.331Z,83.70
2023-04-29T07:28:53.289Z,83.70
2023-04-29T07:31:20.227Z,83.70
2023-04-29T07:33:47.621Z,83.50
2023-04-29T07:36:14.677Z,83.40
2023-04-29T07:38:41.404Z,83.30
2023-04-29T07:41:08.172Z,83.30
2023-04-29T07:43:34.842Z,83.10
2023-04-29T07:46:01.756Z,83.00
2023-04-29T07:48:28.666Z,83.10
2023-04-29T07:50:55.440Z,82.80
2023-04-29T07:53:22.259Z,83.00
2023-04-29T07:55:49.250Z,83.10
2023-04-29T07:58:18.929Z,83.10
2023-04-29T08:00:47.281Z,82.70
2023-04-29T08:03:16.850Z,82.10
2023-04-29T08:05:45.274Z,81.70
2023-04-29T08:08:12.130Z,81.30
2023-04-29T08:10:43.274Z,81.10
2023-04-29T08:13:10.126Z,81.40
2023-04-29T08:15:36.925Z,81.50
2023-04-29T08:18:06.488Z,81.10
2023-04-29T08:20:36.358Z,80.70
2023-04-29T08:23:03.161Z,80.30
2023-04-29T08:25:30.328Z,80.30
2023-04-29T08:27:57.820Z,80.70
2023-04-29T08:30:24.636Z,80.20
2023-04-29T08:32:51.527Z,79.50
2023-04-29T08:35:19.544Z,79.40
2023-04-29T08:37:47.631Z,79.50
2023-04-29T08:40:17.568Z,78.70
2023-04-29T08:42:47.398Z,77.80
2023-04-29T08:45:22.343Z,77.30
2023-04-29T08:47:51.457Z,77.50
2023-04-29T08:50:18.559Z,78.30
2023-04-29T08:52:45.359Z,77.30
2023-04-29T08:55:18.545Z,76.80
2023-04-29T08:57:47.110Z,76.00
2023-04-29T09:00:18.504Z,76.00
2023-04-29T09:02:49.573Z,76.10
2023-04-29T09:05:16.820Z,75.60
2023-04-29T09:07:44.318Z,74.90
2023-04-29T09:10:15.151Z,73.60
2023-04-29T09:12:41.925Z,73.10
2023-04-29T09:15:09.219Z,72.80
2023-04-29T09:17:43.069Z,72.10
2023-04-29T09:20:22.075Z,71.30
2023-04-29T09:22:50.728Z,72.10
2023-04-29T09:25:17.805Z,72.30
2023-04-29T09:27:44.823Z,72.10
2023-04-29T09:30:16.627Z,72.80
2023-04-29T09:32:45.145Z,73.00
2023-04-29T09:35:28.393Z,72.00
2023-04-29T09:38:15.001Z,71.40
2023-04-29T09:40:58.329Z,71.30
2023-04-29T09:43:26.252Z,71.60
2023-04-29T09:45:53.414Z,71.20
2023-04-29T09:48:21.886Z,70.20
2023-04-29T09:51:03.843Z,69.70
2023-04-29T09:53:34.065Z,69.70
2023-04-29T09:56:02.732Z,69.80
2023-04-29T09:58:38.959Z,69.80
2023-04-29T10:01:06.686Z,69.80
2023-04-29T10:03:39.164Z,70.40
2023-04-29T10:06:07.688Z,70.50
2023-04-29T10:08:35.023Z,70.70
2023-04-29T10:11:03.594Z,70.10
2023-04-29T10:13:32.672Z,69.40
2023-04-29T10:16:21.932Z,69.10
2023-04-29T10:18:53.815Z,69.50
2023-04-29T10:21:27.216Z,69.40
2023-04-29T10:23:56.655Z,68.70
2023-04-29T10:26:27.582Z,67.20
2023-04-29T10:28:56.596Z,66.90
2023-04-29T10:31:27.697Z,66.80
2023-04-29T10:34:07.691Z,66.90
2023-04-29T10:36:37.323Z,67.00
2023-04-29T10:39:07.771Z,66.80
2023-04-29T10:41:42.430Z,66.80
2023-04-29T10:44:09.282Z,67.10
2023-04-29T10:46:37.808Z,66.80
2023-04-29T10:49:06.779Z,66.80
2023-04-29T10:51:35.995Z,66.70
2023-04-29T10:54:08.205Z,66.20
2023-04-29T10:56:45.015Z,65.50
2023-04-29T10:59:13.656Z,65.50
2023-04-29T11:01:42.932Z,65.70
2023-04-29T11:04:12.731Z,65.50
2023-04-29T11:06:46.055Z,65.80
2023-04-29T11:09:47.579Z,65.60
2023-04-29T11:12:21.408Z,65.70
2023-04-29T11:14:55.049Z,66.50
2023-04-29T11:17:23.950Z,65.70
2023-04-29T11:19:52.343Z,66.00
2023-04-29T11:22:19.495Z,65.50
2023-04-29T11:25:02.681Z,65.30
2023-04-29T11:27:37.301Z,64.70
2023-04-29T11:30:08.444Z,64.90
2023-04-29T11:32:37.872Z,65.10
2023-04-29T11:35:18.574Z,64.70
2023-04-29T11:37:47.160Z,64.10
2023-04-29T11:40:17.495Z,63.90
2023-04-29T11:42:46.459Z,63.90
2023-04-29T11:45:15.675Z,63.10
2023-04-29T11:47:47.883Z,62.40
2023-04-29T11:50:17.846Z,62.20
2023-04-29T11:52:49.614Z,62.00
2023-04-29T11:55:16.696Z,61.60
2023-04-29T11:57:43.775Z,61.50
2023-04-29T12:00:13.021Z,61.40
2023-04-29T12:02:43.509Z,60.90
2023-04-29T12:05:12.815Z,60.70
2023-04-29T12:07:40.476Z,60.60
2023-04-29T12:10:11.751Z,60.60
2023-04-29T12:12:41.059Z,60.90
2023-04-29T12:15:10.124Z,60.60
2023-04-29T12:17:40.945Z,60.20
2023-04-29T12:20:12.733Z,60.20
2023-04-29T12:22:39.979Z,59.40
2023-04-29T12:25:10.033Z,58.90
2023-04-29T12:27:39.792Z,58.60
2023-04-29T12:30:13.134Z,58.50
2023-04-29T12:32:40.262Z,58.00
2023-04-29T12:35:16.582Z,58.10
2023-04-29T12:37:43.396Z,58.00
2023-04-29T12:40:16.921Z,58.20
2023-04-29T12:42:49.515Z,58.90
2023-04-29T12:45:33.181Z,58.80
2023-04-29T12:48:01.611Z,58.50
2023-04-29T12:50:35.956Z,58.00
2023-04-29T12:53:07.383Z,56.90
2023-04-29T12:55:36.266Z,56.70
2023-04-29T12:58:04.526Z,56.60
2023-04-29T13:00:32.103Z,56.50
2023-04-29T13:02:59.276Z,56.30
2023-04-29T13:05:26.176Z,56.50
2023-04-29T13:07:53.063Z,55.90
2023-04-29T13:10:19.967Z,55.90
2023-04-29T13:12:47.853Z,56.00
2023-04-29T13:15:15.739Z,55.70
2023-04-29T13:17:42.945Z,56.40
2023-04-29T13:20:11.689Z,55.80
2023-04-29T13:22:38.546Z,55.60
2023-04-29T13:25:05.876Z,55.30
2023-04-29T13:27:32.756Z,54.60
2023-04-29T13:29:59.591Z,54.60
2023-04-29T13:32:26.325Z,54.70
2023-04-29T13:34:53.937Z,55.20
2023-04-29T13:37:21.013Z,54.60
2023-04-29T13:39:48.115Z,54.70
2023-04-29T13:42:15.821Z,54.60
2023-04-29T13:44:52.219Z,54.10
2023-04-29T13:47:25.664Z,53.80
2023-04-29T13:50:22.252Z,53.80
2023-04-29T13:53:19.867Z,53.80
2023-04-29T13:56:24.491Z,53.30
2023-04-29T13:58:55.985Z,53.80
2023-04-29T14:01:17.588Z,53.80
2023-04-29T14:03:50.128Z,54.10
2023-04-29T14:06:17.148Z,53.90
2023-04-29T14:08:44.710Z,53.60
2023-04-29T14:11:11.546Z,53.30
2023-04-29T14:13:38.481Z,53.40
2023-04-29T14:16:07.055Z,53.90
2023-04-29T14:18:33.916Z,54.00
2023-04-29T14:21:00.733Z,53.40
2023-04-29T14:23:27.631Z,53.30
2023-04-29T14:26:11.596Z,53.10
2023-04-29T14:28:43.764Z,52.70
2023-04-29T14:31:13.683Z,52.70
2023-04-29T14:33:40.688Z,52.90
2023-04-29T14:36:07.795Z,52.90
2023-04-29T14:38:34.862Z,52.90
2023-04-29T14:41:01.572Z,52.90
2023-04-29T14:43:29.076Z,52.80
2023-04-29T14:45:56.147Z,52.30
2023-04-29T14:48:23.533Z,52.00
2023-04-29T14:50:50.266Z,51.90
2023-04-29T14:53:17.136Z,51.80
2023-04-29T14:55:44.056Z,51.40
2023-04-29T14:58:10.847Z,51.30
2023-04-29T15:00:37.662Z,51.30
2023-04-29T15:03:05.391Z,51.40
2023-04-29T15:05:32.278Z,51.70
2023-04-29T15:08:00.498Z,51.50
2023-04-29T15:10:27.847Z,51.50
2023-04-29T15:12:55.107Z,51.50
2023-04-29T15:15:23.269Z,51.20
2023-04-29T15:17:50.205Z,51.00
2023-04-29T15:20:17.121Z,51.50
2023-04-29T15:22:44.072Z,51.30
2023-04-29T15:25:10.981Z,51.30
2023-04-29T15:27:37.972Z,51.10
2023-04-29T15:30:05.877Z,51.40
2023-04-29T15:32:32.955Z,51.70
2023-04-29T15:35:01.194Z,51.90
2023-04-29T15:37:29.972Z,51.80
2023-04-29T15:39:59.610Z,51.60
2023-04-29T15:42:26.746Z,51.30
2023-04-29T15:44:53.594Z,51.30
2023-04-29T15:47:20.470Z,51.00
2023-04-29T15:49:47.223Z,50.80
2023-04-29T15:52:14.005Z,50.40
2023-04-29T15:54:41.037Z,50.20
2023-04-29T15:57:07.932Z,50.20
2023-04-29T15:59:34.718Z,50.10
2023-04-29T16:02:03.164Z,50.00
2023-04-29T16:04:31.468Z,49.90
2023-04-29T16:06:58.239Z,49.90
2023-04-29T16:09:27.596Z,49.80
2023-04-29T16:11:54.426Z,49.70
2023-04-29T16:14:21.209Z,49.40
2023-04-29T16:16:47.967Z,49.50
2023-04-29T16:19:14.990Z,49.30
2023-04-29T16:21:45.426Z,49.20
2023-04-29T16:24:13.015Z,49.20
2023-04-29T16:26:40.770Z,49.70
2023-04-29T16:29:08.874Z,50.20
2023-04-29T16:31:35.944Z,50.00
2023-04-29T16:34:03.311Z,49.80
2023-04-29T16:36:31.600Z,49.70
2023-04-29T16:38:58.379Z,49.80
2023-04-29T16:41:26.658Z,49.60
2023-04-29T16:43:54.245Z,49.40
2023-04-29T16:46:21.696Z,49.20
2023-04-29T16:48:51.364Z,48.80
2023-04-29T16:51:21.403Z,49.00
2023-04-29T16:53:48.360Z,49.10
2023-04-29T16:56:15.115Z,49.30
2023-04-29T16:58:41.835Z,49.80
2023-04-29T17:01:08.773Z,50.00
2023-04-29T17:03:36.131Z,50.20
2023-04-29T17:06:04.065Z,50.40
2023-04-29T17:08:31.175Z,50.40
2023-04-29T17:10:57.977Z,50.50
2023-04-29T17:13:24.805Z,50.60
2023-04-29T17:15:51.799Z,50.80
2023-04-29T17:18:20.129Z,50.80
2023-04-29T17:20:50.933Z,51.00
2023-04-29T17:23:18.422Z,50.90
2023-04-29T17:25:45.318Z,51.20
2023-04-29T17:28:15.201Z,51.20
2023-04-29T17:30:42.047Z,51.50
2023-04-29T17:33:09.176Z,51.80
2023-04-29T17:35:38.925Z,52.00
2023-04-29T17:38:05.725Z,51.90
2023-04-29T17:40:32.586Z,52.10
2023-04-29T17:42:59.328Z,52.20
2023-04-29T17:45:26.250Z,52.10
2023-04-29T17:47:53.184Z,52.20
2023-04-29T17:50:20.258Z,52.40
2023-04-29T17:52:47.157Z,52.60
2023-04-29T17:55:16.503Z,52.60
2023-04-29T17:57:43.455Z,52.70
2023-04-29T18:00:11.323Z,52.80
2023-04-29T18:02:38.242Z,53.00
2023-04-29T18:05:05.338Z,53.00
2023-04-29T18:07:32.298Z,53.10
2023-04-29T18:09:59.054Z,53.30
2023-04-29T18:12:25.934Z,53.40
2023-04-29T18:14:55.899Z,53.50
2023-04-29T18:17:22.856Z,53.60
2023-04-29T18:19:49.711Z,53.80
2023-04-29T18:22:16.744Z,54.00
2023-04-29T18:24:43.705Z,54.10
2023-04-29T18:27:10.548Z,54.90
2023-04-29T18:29:37.317Z,54.30
2023-04-29T18:32:06.460Z,54.30
2023-04-29T18:34:34.622Z,54.40
2023-04-29T18:37:01.705Z,54.40
2023-04-29T18:39:28.655Z,54.10
2023-04-29T18:41:55.996Z,54.20
2023-04-29T18:44:22.996Z,54.80
2023-04-29T18:46:49.908Z,54.10
2023-04-29T18:49:17.943Z,53.90
2023-04-29T18:51:48.146Z,53.90
2023-04-29T18:54:17.366Z,53.90
2023-04-29T18:56:49.165Z,53.80
2023-04-29T18:59:19.211Z,53.70
2023-04-29T19:01:47.218Z,53.70
2023-04-29T19:04:14.717Z,53.80
2023-04-29T19:06:42.409Z,53.80
2023-04-29T19:09:09.633Z,53.90
2023-04-29T19:11:36.427Z,54.00
2023-04-29T19:14:06.344Z,54.10
2023-04-29T19:16:35.543Z,54.10
2023-04-29T19:19:04.168Z,54.20
2023-04-29T19:21:33.244Z,54.20
2023-04-29T19:24:00.211Z,54.20
2023-04-29T19:26:27.076Z,54.20
2023-04-29T19:28:54.135Z,54.30
2023-04-29T19:31:30.045Z,54.40
2023-04-29T19:34:00.194Z,54.40
2023-04-29T19:36:27.010Z,54.40
2023-04-29T19:38:53.822Z,54.50
2023-04-29T19:41:24.153Z,54.40
2023-04-29T19:43:51.266Z,54.50
2023-04-29T19:46:18.091Z,54.50
2023-04-29T19:48:44.952Z,54.50
2023-04-29T19:51:11.769Z,54.60
2023-04-29T19:53:43.447Z,54.70
2023-04-29T19:56:10.340Z,54.70
2023-04-29T19:58:37.181Z,54.80
2023-04-29T20:01:04.074Z,54.90
2023-04-29T20:03:30.992Z,54.90
2023-04-29T20:05:59.192Z,55.10
2023-04-29T20:08:26.705Z,55.20
2023-04-29T20:10:54.145Z,55.30
2023-04-29T20:13:23.915Z,55.30
2023-04-29T20:15:50.825Z,55.40
2023-04-29T20:18:18.038Z,55.50
2023-04-29T20:20:45.480Z,55.50
2023-04-29T20:23:14.300Z,55.60
2023-04-29T20:25:41.355Z,55.70
2023-04-29T20:28:09.264Z,55.70
2023-04-29T20:30:36.715Z,55.70
2023-04-29T20:33:03.712Z,55.90
2023-04-29T20:35:30.575Z,55.90
2023-04-29T20:37:57.502Z,56.00
2023-04-29T20:40:24.315Z,56.00
2023-04-29T20:42:51.128Z,56.00
2023-04-29T20:45:18.471Z,56.00
2023-04-29T20:47:46.719Z,56.00
2023-04-29T20:50:13.660Z,56.00
2023-04-29T20:52:40.348Z,55.90
2023-04-29T20:55:07.390Z,56.00
2023-04-29T20:57:34.111Z,56.20
2023-04-29T21:00:00.988Z,55.90
2023-04-29T21:02:31.066Z,56.00
2023-04-29T21:04:57.957Z,56.10
2023-04-29T21:07:24.750Z,56.00
2023-04-29T21:09:51.783Z,56.10
2023-04-29T21:12:18.685Z,56.20
2023-04-29T21:14:45.599Z,56.30
2023-04-29T21:17:12.361Z,56.30
2023-04-29T21:19:39.139Z,56.20
2023-04-29T21:22:08.896Z,56.40
2023-04-29T21:24:35.678Z,56.40
2023-04-29T21:27:04.710Z,56.50
2023-04-29T21:29:31.488Z,56.60
2023-04-29T21:31:58.741Z,56.70
2023-04-29T21:34:28.719Z,56.70
2023-04-29T21:36:58.507Z,56.80
2023-04-29T21:39:28.073Z,57.60
2023-04-29T21:41:58.626Z,57.00
2023-04-29T21:44:25.568Z,57.10
2023-04-29T21:46:53.137Z,57.30
2023-04-29T21:49:20.267Z,57.40
2023-04-29T21:51:47.159Z,57.50
2023-04-29T21:54:13.874Z,57.60
2023-04-29T21:56:40.722Z,57.70
2023-04-29T21:59:07.649Z,57.80
2023-04-29T22:01:43.319Z,58.00
2023-04-29T22:04:13.691Z,58.00
2023-04-29T22:06:40.512Z,58.20
2023-04-29T22:09:07.507Z,58.30
2023-04-29T22:11:34.670Z,58.50
2023-04-29T22:14:01.603Z,58.60
2023-04-29T22:16:28.513Z,58.70
2023-04-29T22:18:57.495Z,58.90
2023-04-29T22:21:24.639Z,59.00
2023-04-29T22:23:51.568Z,59.10
2023-04-29T22:26:18.764Z,59.30
2023-04-29T22:28:48.398Z,59.40
2023-04-29T22:31:15.200Z,59.60
2023-04-29T22:33:42.033Z,59.70
2023-04-29T22:36:08.834Z,59.70
2023-04-29T22:38:37.331Z,59.90
2023-04-29T22:41:04.609Z,60.20
2023-04-29T22:43:31.491Z,60.30
2023-04-29T22:45:58.370Z,60.40
2023-04-29T22:48:27.474Z,60.60
2023-04-29T22:50:56.151Z,60.80
2023-04-29T22:53:23.202Z,60.90
2023-04-29T22:55:51.842Z,61.10
2023-04-29T22:58:19.416Z,61.20
2023-04-29T23:00:49.819Z,61.40
2023-04-29T23:03:16.576Z,61.40
2023-04-29T23:05:43.336Z,61.50
2023-04-29T23:08:10.126Z,61.60
2023-04-29T23:10:36.871Z,61.70
2023-04-29T23:13:04.068Z,62.90
2023-04-29T23:15:31.131Z,63.10
2023-04-29T23:17:58.648Z,63.40
2023-04-29T23:20:25.830Z,63.60
2023-04-29T23:22:52.667Z,63.60
2023-04-29T23:25:19.525Z,63.70
2023-04-29T23:27:46.358Z,63.90
2023-04-29T23:30:13.208Z,64.10
2023-04-29T23:32:40.177Z,64.30
2023-04-29T23:35:07.683Z,64.40
2023-04-29T23:37:34.752Z,64.50
2023-04-29T23:40:01.556Z,64.70
2023-04-29T23:42:28.351Z,64.80
2023-04-29T23:44:58.085Z,64.90
2023-04-29T23:47:24.855Z,65.00
2023-04-29T23:49:54.896Z,65.00
2023-04-29T23:52:21.955Z,65.20
2023-04-29T23:54:48.671Z,65.30
2023-04-29T23:57:15.531Z,65.50
2023-04-29T23:59:42.598Z,65.50
